createdAt,value
2022-08-07T00:02:37.415Z,54.43
2022-08-07T00:05:24.638Z,54.73
2022-08-07T00:08:07.883Z,55.18
2022-08-07T00:10:57.518Z,55.58
2022-08-07T00:13:44.843Z,55.84
2022-08-07T00:16:27.962Z,56.10
2022-08-07T00:19:10.213Z,56.31
2022-08-07T00:22:03.887Z,56.52
2022-08-07T00:24:46.396Z,56.86
2022-08-07T00:27:28.584Z,57.30
2022-08-07T00:30:30.256Z,57.85
2022-08-07T00:33:12.255Z,58.31
2022-08-07T00:35:56.097Z,58.58
2022-08-07T00:38:39.112Z,58.96
2022-08-07T00:41:31.764Z,59.32
2022-08-07T00:44:19.806Z,59.57
2022-08-07T00:47:06.509Z,59.93
2022-08-07T00:50:19.571Z,60.47
2022-08-07T00:53:00.514Z,60.90
2022-08-07T00:56:03.021Z,61.10
2022-08-07T00:58:47.440Z,61.58
2022-08-07T01:01:41.579Z,61.91
2022-08-07T01:04:26.805Z,62.13
2022-08-07T01:07:12.759Z,62.46
2022-08-07T01:10:06.783Z,62.70
2022-08-07T01:12:54.965Z,63.09
2022-08-07T01:16:00.841Z,63.33
2022-08-07T01:18:41.750Z,63.54
2022-08-07T01:21:28.415Z,63.60
2022-08-07T01:24:12.710Z,63.99
2022-08-07T01:26:55.219Z,64.24
2022-08-07T01:29:38.652Z,64.44
2022-08-07T01:32:22.450Z,64.44
2022-08-07T01:35:07.244Z,64.54
2022-08-07T01:37:52.579Z,64.97
2022-08-07T01:40:35.757Z,65.12
2022-08-07T01:43:21.749Z,65.39
2022-08-07T01:46:12.329Z,65.42
2022-08-07T01:48:57.317Z,65.56
2022-08-07T01:52:01.796Z,65.84
2022-08-07T01:54:47.425Z,66.02
2022-08-07T01:58:01.019Z,66.12
2022-08-07T02:00:38.799Z,66.12
2022-08-07T02:03:48.742Z,66.43
2022-08-07T02:06:34.522Z,66.58
2022-08-07T02:09:52.115Z,66.89
2022-08-07T02:12:29.178Z,67.25
2022-08-07T02:15:14.439Z,67.28
2022-08-07T02:18:02.427Z,67.47
2022-08-07T02:20:48.517Z,67.60
2022-08-07T02:23:35.902Z,67.66
2022-08-07T02:26:33.979Z,67.72
2022-08-07T02:29:18.175Z,67.65
2022-08-07T02:32:05.704Z,67.74
2022-08-07T02:34:51.291Z,68.03
2022-08-07T02:37:36.275Z,67.91
2022-08-07T02:40:29.863Z,67.93
2022-08-07T02:43:14.782Z,68.11
2022-08-07T02:46:02.510Z,68.29
2022-08-07T02:48:54.683Z,68.21
2022-08-07T02:51:42.443Z,68.64
2022-08-07T02:54:37.291Z,68.55
2022-08-07T02:57:24.000Z,68.60
2022-08-07T03:00:14.191Z,68.55
2022-08-07T03:03:06.024Z,68.72
2022-08-07T03:05:54.827Z,68.75
2022-08-07T03:08:38.516Z,69.07
2022-08-07T03:11:20.768Z,69.18
2022-08-07T03:14:07.938Z,69.44
2022-08-07T03:16:52.401Z,69.42
2022-08-07T03:19:36.871Z,69.81
2022-08-07T03:22:22.436Z,70.11
2022-08-07T03:25:06.379Z,70.01
2022-08-07T03:27:59.440Z,70.18
2022-08-07T03:31:12.508Z,70.33
2022-08-07T03:34:01.509Z,70.34
2022-08-07T03:36:46.285Z,70.14
2022-08-07T03:39:46.098Z,70.34
2022-08-07T03:42:37.521Z,70.99
2022-08-07T03:45:30.391Z,71.01
2022-08-07T03:48:16.681Z,71.27
2022-08-07T03:51:02.255Z,71.32
2022-08-07T03:54:33.183Z,71.46
2022-08-07T03:57:03.895Z,71.58
2022-08-07T04:00:01.710Z,71.51
2022-08-07T04:02:49.489Z,71.90
2022-08-07T04:05:45.667Z,71.95
2022-08-07T04:08:33.039Z,71.86
2022-08-07T04:12:26.569Z,71.87
2022-08-07T04:14:38.962Z,72.32
2022-08-07T04:17:22.096Z,72.39
2022-08-07T04:20:12.424Z,72.44
2022-08-07T04:23:01.306Z,72.67
2022-08-07T04:25:45.805Z,72.78
2022-08-07T04:28:31.797Z,72.76
2022-08-07T04:31:20.262Z,72.98
2022-08-07T04:34:27.358Z,72.69
2022-08-07T04:37:15.577Z,72.37
2022-08-07T04:40:04.723Z,72.42
2022-08-07T04:42:52.479Z,72.20
2022-08-07T04:46:00.732Z,71.97
2022-08-07T04:49:17.971Z,71.45
2022-08-07T04:52:25.184Z,71.22
2022-08-07T04:58:11.572Z,70.95
2022-08-07T05:02:03.973Z,70.14
2022-08-07T05:04:59.951Z,69.91
2022-08-07T05:08:06.574Z,69.71
2022-08-07T05:11:19.368Z,69.33
2022-08-07T05:14:54.548Z,69.15
2022-08-07T05:17:16.193Z,68.79
2022-08-07T05:20:33.997Z,68.59
2022-08-07T05:23:37.808Z,68.80
2022-08-07T05:26:24.001Z,67.37
2022-08-07T05:29:16.792Z,66.47
2022-08-07T05:32:00.980Z,66.00
2022-08-07T05:34:46.689Z,64.73
2022-08-07T05:37:29.873Z,64.36
2022-08-07T05:40:20.422Z,64.33
2022-08-07T05:43:02.801Z,64.77
2022-08-07T05:45:47.840Z,63.54
2022-08-07T05:48:32.245Z,62.68
2022-08-07T05:51:18.245Z,63.34
2022-08-07T05:54:09.581Z,62.79
2022-08-07T05:57:08.320Z,61.72
2022-08-07T05:59:57.939Z,61.33
2022-08-07T06:02:47.933Z,60.50
2022-08-07T06:05:31.704Z,60.61
2022-08-07T06:08:30.035Z,59.95
2022-08-07T06:11:14.284Z,59.56
2022-08-07T06:14:11.952Z,60.00
2022-08-07T06:16:57.218Z,60.60
2022-08-07T06:20:03.309Z,59.07
2022-08-07T06:23:01.781Z,58.64
2022-08-07T06:25:54.306Z,58.48
2022-08-07T06:28:49.328Z,58.02
2022-08-07T06:31:46.755Z,57.24
2022-08-07T06:34:32.970Z,53.59
2022-08-07T06:37:20.372Z,50.91
2022-08-07T06:40:17.766Z,50.66
2022-08-07T06:43:21.621Z,50.84
2022-08-07T06:46:31.233Z,49.62
2022-08-07T06:49:14.437Z,50.35
2022-08-07T06:52:02.874Z,49.86
2022-08-07T06:55:32.700Z,47.49
2022-08-07T06:57:59.422Z,47.72
2022-08-07T07:00:44.325Z,46.10
2022-08-07T07:03:40.039Z,47.10
2022-08-07T07:06:28.685Z,46.08
2022-08-07T07:09:31.807Z,46.48
2022-08-07T07:12:19.698Z,45.60
2022-08-07T07:15:23.569Z,43.98
2022-08-07T07:18:15.560Z,44.61
2022-08-07T07:21:40.266Z,44.77
2022-08-07T07:24:43.176Z,43.16
2022-08-07T07:27:56.231Z,43.06
2022-08-07T07:31:17.220Z,43.33
2022-08-07T07:34:09.854Z,44.21
2022-08-07T07:36:54.172Z,44.39
2022-08-07T07:39:52.399Z,43.31
2022-08-07T07:42:39.188Z,43.16
2022-08-07T07:46:37.800Z,42.92
2022-08-07T07:48:35.723Z,41.74
2022-08-07T07:51:22.483Z,42.51
2022-08-07T07:54:07.454Z,41.35
2022-08-07T07:56:55.213Z,41.31
2022-08-07T07:59:52.047Z,41.21
2022-08-07T08:03:05.341Z,41.26
2022-08-07T08:05:54.089Z,37.90
2022-08-07T08:08:41.819Z,38.25
2022-08-07T08:11:59.365Z,38.67
2022-08-07T08:14:31.232Z,38.72
2022-08-07T08:17:57.872Z,39.23
2022-08-07T08:20:23.116Z,38.55
2022-08-07T08:23:30.893Z,38.64
2022-08-07T08:26:52.507Z,38.24
2022-08-07T08:29:54.731Z,36.78
2022-08-07T08:32:53.090Z,36.74
2022-08-07T08:35:42.832Z,37.84
2022-08-07T08:38:41.239Z,38.09
2022-08-07T08:41:58.584Z,38.64
2022-08-07T08:44:53.447Z,39.52
2022-08-07T08:47:54.519Z,38.07
2022-08-07T08:50:57.102Z,38.48
2022-08-07T08:53:53.235Z,38.30
2022-08-07T08:56:47.696Z,37.34
2022-08-07T08:59:48.226Z,37.31
2022-08-07T09:02:40.494Z,38.35
2022-08-07T09:05:37.471Z,38.96
2022-08-07T09:08:48.682Z,38.12
2022-08-07T09:11:43.514Z,37.85
2022-08-07T09:14:58.794Z,37.55
2022-08-07T09:17:59.739Z,37.11
2022-08-07T09:21:13.847Z,36.74
2022-08-07T09:24:58.708Z,37.66
2022-08-07T09:28:00.353Z,38.54
2022-08-07T09:31:17.504Z,37.83
2022-08-07T09:34:27.411Z,37.36
2022-08-07T09:37:47.877Z,36.81
2022-08-07T09:41:06.652Z,37.03
2022-08-07T09:44:30.111Z,34.99
2022-08-07T09:47:55.940Z,36.17
2022-08-07T09:50:56.545Z,34.69
2022-08-07T09:53:48.003Z,32.28
2022-08-07T09:56:50.045Z,31.24
2022-08-07T10:00:02.283Z,32.18
2022-08-07T10:04:06.191Z,33.25
2022-08-07T10:07:01.538Z,33.49
2022-08-07T10:10:22.965Z,33.13
2022-08-07T10:14:00.941Z,32.13
2022-08-07T10:16:45.085Z,31.47
2022-08-07T10:19:30.656Z,31.50
2022-08-07T10:23:07.761Z,30.26
2022-08-07T10:26:10.868Z,31.72
2022-08-07T10:29:09.778Z,33.62
2022-08-07T10:32:51.394Z,32.05
2022-08-07T10:35:57.175Z,30.26
2022-08-07T10:39:01.100Z,31.84
2022-08-07T10:42:09.118Z,29.89
2022-08-07T10:44:52.435Z,30.03
2022-08-07T10:47:53.848Z,31.48
2022-08-07T10:50:44.859Z,29.82
2022-08-07T10:54:00.018Z,29.87
2022-08-07T10:57:01.829Z,29.69
2022-08-07T10:59:53.464Z,29.50
2022-08-07T11:02:49.116Z,30.50
2022-08-07T11:05:54.770Z,30.35
2022-08-07T11:08:50.043Z,30.00
2022-08-07T11:11:40.790Z,30.23
2022-08-07T11:14:45.144Z,29.99
2022-08-07T11:18:03.663Z,29.75
2022-08-07T11:20:56.817Z,30.41
2022-08-07T11:23:53.332Z,29.87
2022-08-07T11:26:56.221Z,28.83
2022-08-07T11:30:18.709Z,28.64
2022-08-07T11:33:08.166Z,29.31
2022-08-07T11:36:14.490Z,29.67
2022-08-07T11:39:59.865Z,29.77
2022-08-07T11:42:59.092Z,28.55
2022-08-07T11:46:19.908Z,29.70
2022-08-07T11:49:51.467Z,28.06
2022-08-07T11:52:37.706Z,28.26
2022-08-07T11:56:13.983Z,28.51
2022-08-07T11:58:59.376Z,28.63
2022-08-07T12:02:04.115Z,29.30
2022-08-07T12:05:09.141Z,29.74
2022-08-07T12:08:47.366Z,30.80
2022-08-07T12:12:09.562Z,30.94
2022-08-07T12:15:00.597Z,31.38
2022-08-07T12:18:29.892Z,32.82
2022-08-07T12:22:36.614Z,31.39
2022-08-07T12:24:40.536Z,30.02
2022-08-07T12:28:09.150Z,30.26
2022-08-07T12:30:38.470Z,31.47
2022-08-07T12:33:30.942Z,30.93
2022-08-07T12:36:38.201Z,31.02
2022-08-07T12:39:42.098Z,30.10
2022-08-07T12:42:31.920Z,28.62
2022-08-07T12:45:22.788Z,29.39
2022-08-07T12:48:53.258Z,29.03
2022-08-07T12:52:11.800Z,29.05
2022-08-07T12:55:17.478Z,28.66
2022-08-07T12:58:06.434Z,28.82
2022-08-07T13:01:03.451Z,29.30
2022-08-07T13:04:09.763Z,29.98
2022-08-07T13:08:13.347Z,30.99
2022-08-07T13:10:39.846Z,31.45
2022-08-07T13:13:57.323Z,31.13
2022-08-07T13:16:46.679Z,30.00
2022-08-07T13:20:01.492Z,30.43
2022-08-07T13:22:57.696Z,30.99
2022-08-07T13:25:50.568Z,31.45
2022-08-07T13:28:42.616Z,31.08
2022-08-07T13:31:55.161Z,31.13
2022-08-07T13:35:09.247Z,31.17
2022-08-07T13:38:30.915Z,31.58
2022-08-07T13:41:41.393Z,31.38
2022-08-07T13:44:34.502Z,32.01
2022-08-07T13:47:25.311Z,31.48
2022-08-07T13:50:35.898Z,31.13
2022-08-07T13:53:24.037Z,30.33
2022-08-07T13:56:08.094Z,29.77
2022-08-07T13:59:01.690Z,29.92
2022-08-07T14:02:04.162Z,30.07
2022-08-07T14:04:55.250Z,29.58
2022-08-07T14:07:59.280Z,29.94
2022-08-07T14:10:44.721Z,30.11
2022-08-07T14:13:53.576Z,30.46
2022-08-07T14:16:40.555Z,29.39
2022-08-07T14:20:43.674Z,29.11
2022-08-07T14:22:42.601Z,29.52
2022-08-07T14:25:29.456Z,29.43
2022-08-07T14:28:32.164Z,29.37
2022-08-07T14:31:26.175Z,29.61
2022-08-07T14:34:30.090Z,29.65
2022-08-07T14:40:27.026Z,30.19
2022-08-07T14:43:55.169Z,30.33
2022-08-07T14:46:19.002Z,30.24
2022-08-07T14:49:56.481Z,31.00
2022-08-07T14:52:16.965Z,31.28
2022-08-07T14:55:02.355Z,31.37
2022-08-07T14:57:54.886Z,31.62
2022-08-07T15:00:44.407Z,31.48
2022-08-07T15:03:51.618Z,31.33
2022-08-07T15:06:38.998Z,31.53
2022-08-07T15:09:57.760Z,31.22
2022-08-07T15:12:32.548Z,30.97
2022-08-07T15:15:22.939Z,31.39
2022-08-07T15:18:14.262Z,31.97
2022-08-07T15:21:58.642Z,32.63
2022-08-07T15:25:15.314Z,32.16
2022-08-07T15:31:06.520Z,31.82
2022-08-07T15:33:49.958Z,31.39
2022-08-07T15:37:02.510Z,31.85
2022-08-07T15:39:56.351Z,32.10
2022-08-07T15:42:51.589Z,32.31
2022-08-07T15:45:55.481Z,32.32
2022-08-07T15:49:11.649Z,32.17
2022-08-07T15:54:46.107Z,32.60
2022-08-07T15:57:48.109Z,32.53
2022-08-07T16:00:38.198Z,32.17
2022-08-07T16:03:46.510Z,31.14
2022-08-07T16:06:39.099Z,30.97
2022-08-07T16:09:49.858Z,30.73
2022-08-07T16:13:57.469Z,30.86
2022-08-07T16:16:51.546Z,30.83
2022-08-07T16:19:59.519Z,31.49
2022-08-07T16:23:09.885Z,31.60
2022-08-07T16:26:30.929Z,31.84
2022-08-07T16:30:09.675Z,31.88
2022-08-07T16:34:02.519Z,31.60
2022-08-07T16:37:02.619Z,31.73
2022-08-07T16:40:28.692Z,31.99
2022-08-07T16:44:06.453Z,32.27
2022-08-07T16:47:16.668Z,32.43
2022-08-07T16:51:07.252Z,33.43
2022-08-07T16:54:06.880Z,33.16
2022-08-07T16:56:55.586Z,33.38
2022-08-07T16:59:53.061Z,33.50
2022-08-07T17:02:54.740Z,33.95
2022-08-07T17:06:19.380Z,34.85
2022-08-07T17:09:09.287Z,35.19
2022-08-07T17:12:36.779Z,35.41
2022-08-07T17:15:44.210Z,35.56
2022-08-07T17:18:48.138Z,35.70
2022-08-07T17:22:03.398Z,35.09
2022-08-07T17:25:08.168Z,35.01
2022-08-07T17:28:06.833Z,35.22
2022-08-07T17:31:16.428Z,35.23
2022-08-07T17:34:34.716Z,35.30
2022-08-07T17:38:06.457Z,35.27
2022-08-07T17:42:01.824Z,35.40
2022-08-07T17:44:49.984Z,35.17
2022-08-07T17:47:43.647Z,35.51
2022-08-07T17:50:54.519Z,35.53
2022-08-07T17:54:06.480Z,34.94
2022-08-07T17:57:19.107Z,35.71
2022-08-07T18:00:11.333Z,35.44
2022-08-07T18:03:09.294Z,35.64
2022-08-07T18:06:16.410Z,36.15
2022-08-07T18:09:16.022Z,36.42
2022-08-07T18:12:27.916Z,36.57
2022-08-07T18:15:24.253Z,36.50
2022-08-07T18:18:47.070Z,36.80
2022-08-07T18:21:53.576Z,36.35
2022-08-07T18:24:40.233Z,36.85
2022-08-07T18:27:26.196Z,36.90
2022-08-07T18:30:45.303Z,36.97
2022-08-07T18:33:55.034Z,37.39
2022-08-07T18:36:59.207Z,37.10
2022-08-07T18:40:42.701Z,37.40
2022-08-07T18:43:48.958Z,37.85
2022-08-07T18:46:54.880Z,38.41
2022-08-07T18:50:32.678Z,39.02
2022-08-07T18:53:04.422Z,39.54
2022-08-07T18:56:14.141Z,40.08
2022-08-07T18:58:57.217Z,40.66
2022-08-07T19:02:19.070Z,40.77
2022-08-07T19:05:22.620Z,40.99
2022-08-07T19:08:14.264Z,41.29
2022-08-07T19:11:36.082Z,41.76
2022-08-07T19:14:37.267Z,42.48
2022-08-07T19:17:54.482Z,42.85
2022-08-07T19:21:00.093Z,43.14
2022-08-07T19:23:57.389Z,43.13
2022-08-07T19:26:55.482Z,43.18
2022-08-07T19:31:03.751Z,43.19
2022-08-07T19:33:01.575Z,43.28
2022-08-07T19:35:56.743Z,43.15
2022-08-07T19:38:53.255Z,43.75
2022-08-07T19:42:05.879Z,44.28
2022-08-07T19:44:46.703Z,44.55
2022-08-07T19:47:36.520Z,44.70
2022-08-07T19:50:44.537Z,44.79
2022-08-07T19:54:29.765Z,44.86
2022-08-07T19:57:52.020Z,44.56
2022-08-07T19:59:41.715Z,44.97
2022-08-07T20:02:52.096Z,45.06
2022-08-07T20:06:00.465Z,45.35
2022-08-07T20:08:50.898Z,45.59
2022-08-07T20:12:21.930Z,45.90
2022-08-07T20:14:53.917Z,45.54
2022-08-07T20:17:43.803Z,45.44
2022-08-07T20:20:28.213Z,45.41
2022-08-07T20:23:32.912Z,46.07
2022-08-07T20:26:29.533Z,46.57
2022-08-07T20:29:46.668Z,46.90
2022-08-07T20:32:23.002Z,47.16
2022-08-07T20:35:12.573Z,47.52
2022-08-07T20:38:00.895Z,47.61
2022-08-07T20:40:51.474Z,47.40
2022-08-07T20:43:38.509Z,48.17
2022-08-07T20:46:42.878Z,49.28
2022-08-07T20:49:59.541Z,49.86
2022-08-07T20:52:51.369Z,49.81
2022-08-07T20:55:37.219Z,49.59
2022-08-07T20:58:28.180Z,49.37
2022-08-07T21:01:19.458Z,49.48
2022-08-07T21:04:21.671Z,49.58
2022-08-07T21:07:14.300Z,49.81
2022-08-07T21:10:03.936Z,49.49
2022-08-07T21:12:48.643Z,49.71
2022-08-07T21:15:48.171Z,50.23
2022-08-07T21:18:41.249Z,50.36
2022-08-07T21:21:33.166Z,50.37
2022-08-07T21:24:47.990Z,50.62
2022-08-07T21:27:47.384Z,50.69
2022-08-07T21:30:38.953Z,50.92
2022-08-07T21:33:46.637Z,51.20
2022-08-07T21:36:53.152Z,51.25
2022-08-07T21:39:59.806Z,51.41
2022-08-07T21:43:04.760Z,51.55
2022-08-07T21:46:45.714Z,51.79
2022-08-07T21:50:01.114Z,52.05
2022-08-07T21:53:10.117Z,52.44
2022-08-07T21:56:36.371Z,52.80
2022-08-07T22:00:02.741Z,53.23
2022-08-07T22:02:53.358Z,53.66
2022-08-07T22:05:53.207Z,53.81
2022-08-07T22:08:43.397Z,54.09
2022-08-07T22:11:30.724Z,54.12
2022-08-07T22:14:50.599Z,54.29
2022-08-07T22:17:57.869Z,54.58
2022-08-07T22:20:48.907Z,54.73
2022-08-07T22:23:43.602Z,55.13
2022-08-07T22:26:45.159Z,55.47
2022-08-07T22:29:48.114Z,55.63
2022-08-07T22:32:38.341Z,56.21
2022-08-07T22:35:35.538Z,56.41
2022-08-07T22:38:49.031Z,56.54
2022-08-07T22:42:03.539Z,56.54
2022-08-07T22:44:59.115Z,56.87
2022-08-07T22:48:13.971Z,56.83
2022-08-07T22:51:27.157Z,56.87
2022-08-07T22:54:37.119Z,56.78
2022-08-07T22:57:46.096Z,56.93
2022-08-07T23:00:34.760Z,57.22
2022-08-07T23:03:58.898Z,57.44
2022-08-07T23:07:25.846Z,57.14
2022-08-07T23:10:35.422Z,57.48
2022-08-07T23:13:49.317Z,57.85
2022-08-07T23:17:00.250Z,58.22
2022-08-07T23:20:03.174Z,58.29
2022-08-07T23:23:15.753Z,58.39
2022-08-07T23:26:23.485Z,58.49
2022-08-07T23:29:17.074Z,58.27
2022-08-07T23:34:20.020Z,58.31
2022-08-07T23:35:24.278Z,58.40
2022-08-07T23:38:14.433Z,58.48
2022-08-07T23:42:01.326Z,58.58
2022-08-07T23:45:15.339Z,58.61
2022-08-07T23:48:16.130Z,58.53
2022-08-07T23:53:05.505Z,58.98
2022-08-07T23:54:52.808Z,59.12
2022-08-07T23:57:43.033Z,59.26
